Impacts TAF Board INFO
FOR SITUATIONAL AWARENESS. NOT TO BE USED FOR FLIGHT PLANNING PURPOSES.
IDs:

KSEA - Seattle-Tacoma Intl, WA, US

Issued at 0257 UTC 20 Nov 2017
Updated at 0351 UTC 20 Nov 2017
Potential Impact None Slight Moderate High
Time<<21/04Z 21/05Z 21/06Z 21/07Z 21/08Z 21/09Z 21/10Z 21/11Z 21/12Z 21/13Z 21/14Z 21/15Z 21/16Z
Type PRVL PRVL
VIS >6 >6
CIG -- --
Cover SCT SCT
FltCat VFR VFR
WX -- --
WDir 20 20
WSpd 5 5
WGst -- --

Raw TAF
KSEA 200257Z 2003/2106 17010KT P6SM -RA OVC045
  FM200800 18010KT 6SM -SHRA BKN022 OVC040
  FM201400 21003KT 6SM -SHRA SCT008 BKN014 OVC025
  FM202000 03004KT P6SM VCSH SCT018 BKN030 BKN060
  FM210300 02005KT P6SM SCT020 SCT040


METAR Board
Radar Display
Forecast Discussion

FOR SITUATIONAL AWARENESS. NOT TO BE USED FOR FLIGHT PLANNING PURPOSES.